createdAt,value
2019-05-01T00:02:21.724Z,99.90
2019-05-01T00:07:34.719Z,99.90
2019-05-01T00:12:30.377Z,99.90
2019-05-01T00:17:27.779Z,99.90
2019-05-01T00:22:23.586Z,99.90
2019-05-01T00:27:19.149Z,99.90
2019-05-01T00:32:14.793Z,99.90
2019-05-01T00:37:10.407Z,99.90
2019-05-01T00:42:06.041Z,99.90
2019-05-01T00:47:01.698Z,99.90
2019-05-01T00:51:57.381Z,99.90
2019-05-01T00:57:11.050Z,99.90
2019-05-01T01:02:29.608Z,99.90
2019-05-01T01:07:25.592Z,98.60
2019-05-01T01:12:21.196Z,96.10
2019-05-01T01:17:16.879Z,94.00
2019-05-01T01:22:12.525Z,92.90
2019-05-01T01:27:08.351Z,92.50
2019-05-01T01:32:04.394Z,92.20
2019-05-01T01:36:59.964Z,92.10
2019-05-01T01:41:56.283Z,92.40
2019-05-01T01:46:52.620Z,93.20
2019-05-01T01:51:48.247Z,94.80
2019-05-01T01:56:43.880Z,95.80
2019-05-01T02:01:51.408Z,97.20
2019-05-01T02:06:47.696Z,97.70
2019-05-01T02:11:43.422Z,98.60
2019-05-01T02:16:39.060Z,99.30
2019-05-01T02:21:34.775Z,99.90
2019-05-01T02:26:33.461Z,99.90
2019-05-01T02:31:34.844Z,99.90
2019-05-01T02:36:32.085Z,99.90
2019-05-01T02:41:34.329Z,99.90
2019-05-01T02:46:33.921Z,99.90
2019-05-01T02:51:30.473Z,99.90
2019-05-01T02:56:34.736Z,99.90
2019-05-01T03:01:45.435Z,99.90
2019-05-01T03:06:31.241Z,99.90
2019-05-01T03:11:29.486Z,99.90
2019-05-01T03:16:26.167Z,99.90
2019-05-01T03:21:30.638Z,99.90
2019-05-01T03:26:26.753Z,99.90
2019-05-01T03:31:22.500Z,99.90
2019-05-01T03:36:19.291Z,99.90
2019-05-01T03:41:15.261Z,99.90
2019-05-01T03:46:11.761Z,99.90
2019-05-01T03:51:08.184Z,99.90
2019-05-01T03:56:03.941Z,99.90
2019-05-01T04:01:19.287Z,99.90
2019-05-01T04:06:14.965Z,99.90
2019-05-01T04:11:11.496Z,99.90
2019-05-01T04:16:07.430Z,99.90
2019-05-01T04:21:03.677Z,99.90
2019-05-01T04:25:59.332Z,99.90
2019-05-01T04:31:00.319Z,99.90
2019-05-01T04:36:04.255Z,99.90
2019-05-01T04:41:00.495Z,99.90
2019-05-01T04:45:57.017Z,99.90
2019-05-01T04:50:53.262Z,99.90
2019-05-01T04:55:49.023Z,99.90
2019-05-01T05:00:44.874Z,99.90
2019-05-01T05:05:40.600Z,99.90
2019-05-01T05:10:36.362Z,99.90
2019-05-01T05:16:03.462Z,99.90
2019-05-01T05:20:59.961Z,99.90
2019-05-01T05:25:55.952Z,99.90
2019-05-01T05:30:54.217Z,99.90
2019-05-01T05:35:52.194Z,99.90
2019-05-01T05:40:47.961Z,99.90
2019-05-01T05:45:44.046Z,99.90
2019-05-01T05:50:54.977Z,99.90
2019-05-01T05:55:54.631Z,99.90
2019-05-01T06:01:04.777Z,99.90
2019-05-01T06:06:23.045Z,99.90
2019-05-01T06:11:43.346Z,95.90
2019-05-01T06:16:52.159Z,86.30
2019-05-01T06:22:05.076Z,78.80
2019-05-01T06:27:01.973Z,73.20
2019-05-01T06:31:58.861Z,69.10
2019-05-01T06:36:55.324Z,68.20
2019-05-01T06:41:51.672Z,66.00
2019-05-01T06:46:58.260Z,60.70
2019-05-01T06:51:56.201Z,60.10
2019-05-01T06:56:52.223Z,57.70
2019-05-01T07:01:53.305Z,57.20
2019-05-01T07:06:46.290Z,55.90
2019-05-01T07:11:47.665Z,55.20
2019-05-01T07:16:41.329Z,54.70
2019-05-01T07:21:37.454Z,54.60
2019-05-01T07:26:33.431Z,53.10
2019-05-01T07:31:31.037Z,51.70
2019-05-01T07:36:26.445Z,53.40
2019-05-01T07:41:22.206Z,52.00
2019-05-01T07:46:23.962Z,52.50
2019-05-01T07:51:20.078Z,51.10
2019-05-01T07:56:17.275Z,51.70
2019-05-01T08:01:22.225Z,53.00
2019-05-01T08:06:21.499Z,49.90
2019-05-01T08:11:15.368Z,49.20
2019-05-01T08:16:11.068Z,48.90
2019-05-01T08:21:37.635Z,48.90
2019-05-01T08:26:33.331Z,49.80
2019-05-01T08:31:38.606Z,47.80
2019-05-01T08:36:34.424Z,48.30
2019-05-01T08:41:31.824Z,47.60
2019-05-01T08:46:55.734Z,47.00
2019-05-01T08:51:51.559Z,47.30
2019-05-01T08:56:47.240Z,47.30
2019-05-01T09:01:45.777Z,46.10
2019-05-01T09:06:43.801Z,47.20
2019-05-01T09:11:37.656Z,44.20
2019-05-01T09:16:33.356Z,44.10
2019-05-01T09:21:28.996Z,44.00
2019-05-01T09:26:50.131Z,43.60
2019-05-01T09:31:43.542Z,43.10
2019-05-01T09:36:39.157Z,40.60
2019-05-01T09:41:38.405Z,41.00
2019-05-01T09:46:33.244Z,37.70
2019-05-01T09:52:03.029Z,38.30
2019-05-01T09:56:58.717Z,38.30
2019-05-01T10:01:54.412Z,37.20
2019-05-01T10:06:52.249Z,36.60
2019-05-01T10:11:47.352Z,35.10
2019-05-01T10:16:42.989Z,34.50
2019-05-01T10:21:38.740Z,32.70
2019-05-01T10:26:38.280Z,34.30
2019-05-01T10:31:51.493Z,33.10
2019-05-01T10:36:49.893Z,30.90
2019-05-01T10:41:47.938Z,29.90
2019-05-01T10:46:43.562Z,30.20
2019-05-01T10:51:39.250Z,29.70
2019-05-01T10:56:34.997Z,28.10
2019-05-01T11:01:46.257Z,27.40
2019-05-01T11:06:41.960Z,27.40
2019-05-01T11:11:37.865Z,28.10
2019-05-01T11:16:33.509Z,27.10
2019-05-01T11:21:29.195Z,26.60
2019-05-01T11:26:24.872Z,26.20
2019-05-01T11:31:24.909Z,27.00
2019-05-01T11:36:42.518Z,25.30
2019-05-01T11:41:44.694Z,24.10
2019-05-01T11:46:40.352Z,24.90
2019-05-01T11:51:35.997Z,24.40
2019-05-01T11:56:31.677Z,24.90
2019-05-01T12:01:27.308Z,23.10
2019-05-01T12:06:23.435Z,22.90
2019-05-01T12:11:21.743Z,23.70
2019-05-01T12:16:35.110Z,23.20
2019-05-01T12:21:30.774Z,24.20
2019-05-01T12:26:26.461Z,23.10
2019-05-01T12:31:22.101Z,23.60
2019-05-01T12:36:17.915Z,23.30
2019-05-01T12:41:23.846Z,22.90
2019-05-01T12:46:38.417Z,23.90
2019-05-01T12:51:34.507Z,22.40
2019-05-01T12:56:37.253Z,23.20
2019-05-01T13:01:32.837Z,22.70
2019-05-01T13:06:28.500Z,22.30
2019-05-01T13:11:24.146Z,23.10
2019-05-01T13:16:19.862Z,23.40
2019-05-01T13:21:15.496Z,22.30
2019-05-01T13:26:23.093Z,23.60
2019-05-01T13:31:36.710Z,23.90
2019-05-01T13:36:33.517Z,23.40
2019-05-01T13:41:29.211Z,23.20
2019-05-01T13:46:24.893Z,23.20
2019-05-01T13:51:20.549Z,23.40
2019-05-01T13:56:16.225Z,25.10
2019-05-01T14:01:12.224Z,25.70
2019-05-01T14:06:08.960Z,25.80
2019-05-01T14:11:05.349Z,26.20
2019-05-01T14:16:02.034Z,25.50
2019-05-01T14:21:23.414Z,26.10
2019-05-01T14:26:19.180Z,25.00
2019-05-01T14:31:14.902Z,25.90
2019-05-01T14:36:10.606Z,26.50
2019-05-01T14:41:06.418Z,24.70
2019-05-01T14:46:02.119Z,24.00
2019-05-01T14:50:57.885Z,24.50
2019-05-01T14:55:53.559Z,25.70
2019-05-01T15:00:50.311Z,24.60
2019-05-01T15:05:46.098Z,25.00
2019-05-01T15:10:42.194Z,24.30
2019-05-01T15:15:56.678Z,24.60
2019-05-01T15:20:52.535Z,24.00
2019-05-01T15:25:48.327Z,23.70
2019-05-01T15:30:44.076Z,23.80
2019-05-01T15:35:39.808Z,24.20
2019-05-01T15:40:41.350Z,24.00
2019-05-01T15:45:37.102Z,24.60
2019-05-01T15:50:34.066Z,24.20
2019-05-01T15:55:29.866Z,24.80
2019-05-01T16:00:25.840Z,24.80
2019-05-01T16:05:21.818Z,24.60
2019-05-01T16:10:19.853Z,25.30
2019-05-01T16:15:21.243Z,26.30
2019-05-01T16:20:17.177Z,26.60
2019-05-01T16:25:14.712Z,27.10
2019-05-01T16:30:10.786Z,27.70
2019-05-01T16:35:07.280Z,27.70
2019-05-01T16:40:13.185Z,28.20
2019-05-01T16:45:09.932Z,28.30
2019-05-01T16:50:07.531Z,28.50
2019-05-01T16:55:03.281Z,28.10
2019-05-01T17:00:00.558Z,28.00
2019-05-01T17:05:25.594Z,28.80
2019-05-01T17:10:29.274Z,26.10
2019-05-01T17:15:35.265Z,22.00
2019-05-01T17:20:31.561Z,23.10
2019-05-01T17:25:31.726Z,24.80
2019-05-01T17:30:46.087Z,25.80
2019-05-01T17:35:43.224Z,26.70
2019-05-01T17:40:41.087Z,28.00
2019-05-01T17:45:37.325Z,29.20
2019-05-01T17:50:34.589Z,29.70
2019-05-01T17:55:30.913Z,30.50
2019-05-01T18:00:51.526Z,30.60
2019-05-01T18:06:06.673Z,32.10
2019-05-01T18:11:02.537Z,31.40
2019-05-01T18:15:58.772Z,32.20
2019-05-01T18:20:56.366Z,33.10
2019-05-01T18:25:56.198Z,33.80
2019-05-01T18:30:56.602Z,33.60
2019-05-01T18:35:50.538Z,34.40
2019-05-01T18:40:53.876Z,35.20
2019-05-01T18:45:55.685Z,35.40
2019-05-01T18:50:54.932Z,37.10
2019-05-01T18:55:49.909Z,38.80
2019-05-01T19:00:45.840Z,39.20
2019-05-01T19:05:43.131Z,40.20
2019-05-01T19:10:39.316Z,40.90
2019-05-01T19:15:35.284Z,42.00
2019-05-01T19:20:31.687Z,43.10
2019-05-01T19:25:27.611Z,44.30
2019-05-01T19:30:23.963Z,44.60
2019-05-01T19:35:23.605Z,44.80
2019-05-01T19:40:18.058Z,45.80
2019-05-01T19:45:14.377Z,45.30
2019-05-01T19:50:14.101Z,46.50
2019-05-01T19:55:10.369Z,47.20
2019-05-01T20:00:07.725Z,47.90
2019-05-01T20:05:06.373Z,48.70
2019-05-01T20:10:02.428Z,49.50
2019-05-01T20:14:58.212Z,50.00
2019-05-01T20:19:54.277Z,50.70
2019-05-01T20:24:49.990Z,51.70
2019-05-01T20:29:45.805Z,51.70
2019-05-01T20:34:41.664Z,52.60
2019-05-01T20:39:37.355Z,52.70
2019-05-01T20:44:33.144Z,53.00
2019-05-01T20:49:29.014Z,53.30
2019-05-01T20:54:24.847Z,53.80
2019-05-01T20:59:20.592Z,53.90
2019-05-01T21:04:35.157Z,54.30
2019-05-01T21:09:46.795Z,55.10
2019-05-01T21:14:31.994Z,55.40
2019-05-01T21:19:30.240Z,55.80
2019-05-01T21:24:24.948Z,56.20
2019-05-01T21:29:20.595Z,56.70
2019-05-01T21:34:16.299Z,57.40
2019-05-01T21:39:12.558Z,59.30
2019-05-01T21:44:08.448Z,60.70
2019-05-01T21:49:04.467Z,60.90
2019-05-01T21:54:00.129Z,61.40
2019-05-01T21:58:59.464Z,61.80
2019-05-01T22:03:57.108Z,62.60
2019-05-01T22:08:50.517Z,62.90
2019-05-01T22:13:46.261Z,64.70
2019-05-01T22:18:50.488Z,65.20
2019-05-01T22:24:17.115Z,66.40
2019-05-01T22:29:14.417Z,67.70
2019-05-01T22:34:29.313Z,69.70
2019-05-01T22:39:28.760Z,71.00
2019-05-01T22:44:23.840Z,72.70
2019-05-01T22:49:19.485Z,74.70
2019-05-01T22:54:15.112Z,75.40
2019-05-01T22:59:12.154Z,75.40
2019-05-01T23:04:12.161Z,75.90
2019-05-01T23:09:08.865Z,77.50
2019-05-01T23:14:04.815Z,78.10
2019-05-01T23:19:00.512Z,79.10
2019-05-01T23:23:56.871Z,79.80
2019-05-01T23:28:53.529Z,81.10
2019-05-01T23:33:50.626Z,82.10
2019-05-01T23:38:46.423Z,81.80
2019-05-01T23:43:42.065Z,82.90
2019-05-01T23:48:37.700Z,84.20
2019-05-01T23:53:33.335Z,84.30
2019-05-01T23:58:30.473Z,84.80
